sensor_id;sensor_type;location;lat;lon;timestamp;temperature;humidity
38936;DHT22;66589;47.458;9.644;2023-06-19T03:17:30;20.60;74.40
38936;DHT22;66589;47.458;9.644;2023-06-19T03:19:56;20.60;74.40
38936;DHT22;66589;47.458;9.644;2023-06-19T03:22:22;20.70;74.60
38936;DHT22;66589;47.458;9.644;2023-06-19T03:24:48;20.80;74.50
38936;DHT22;66589;47.458;9.644;2023-06-19T03:27:13;20.90;75.20
38936;DHT22;66589;47.458;9.644;2023-06-19T03:29:39;21.00;75.70
38936;DHT22;66589;47.458;9.644;2023-06-19T03:32:05;21.00;75.50
38936;DHT22;66589;47.458;9.644;2023-06-19T03:34:31;21.00;75.20
38936;DHT22;66589;47.458;9.644;2023-06-19T03:36:56;21.10;75.30
38936;DHT22;66589;47.458;9.644;2023-06-19T03:39:22;21.10;75.20
38936;DHT22;66589;47.458;9.644;2023-06-19T03:41:48;21.10;74.70
38936;DHT22;66589;47.458;9.644;2023-06-19T03:44:14;21.20;74.00
38936;DHT22;66589;47.458;9.644;2023-06-19T03:46:39;21.20;73.70
38936;DHT22;66589;47.458;9.644;2023-06-19T03:49:05;21.30;72.60
38936;DHT22;66589;47.458;9.644;2023-06-19T03:51:32;21.30;72.00
38936;DHT22;66589;47.458;9.644;2023-06-19T03:53:58;21.40;71.60
38936;DHT22;66589;47.458;9.644;2023-06-19T03:56:23;21.40;70.70
38936;DHT22;66589;47.458;9.644;2023-06-19T03:58:49;21.50;70.50
38936;DHT22;66589;47.458;9.644;2023-06-19T04:01:15;21.60;70.20
38936;DHT22;66589;47.458;9.644;2023-06-19T04:03:40;21.80;69.30
38936;DHT22;66589;47.458;9.644;2023-06-19T04:06:06;21.90;69.20
38936;DHT22;66589;47.458;9.644;2023-06-19T04:08:33;22.00;68.10
38936;DHT22;66589;47.458;9.644;2023-06-19T04:10:59;22.10;67.60
38936;DHT22;66589;47.458;9.644;2023-06-19T04:13:25;22.30;67.20
38936;DHT22;66589;47.458;9.644;2023-06-19T04:15:51;22.30;67.00
38936;DHT22;66589;47.458;9.644;2023-06-19T04:18:17;22.40;66.90
38936;DHT22;66589;47.458;9.644;2023-06-19T04:20:43;22.40;68.00
38936;DHT22;66589;47.458;9.644;2023-06-19T04:23:09;22.30;68.50
38936;DHT22;66589;47.458;9.644;2023-06-19T04:25:34;22.20;69.70
38936;DHT22;66589;47.458;9.644;2023-06-19T04:28:00;22.20;70.10
38936;DHT22;66589;47.458;9.644;2023-06-19T04:30:29;22.20;69.80
38936;DHT22;66589;47.458;9.644;2023-06-19T04:32:56;22.10;68.40
38936;DHT22;66589;47.458;9.644;2023-06-19T04:35:22;22.10;68.80
38936;DHT22;66589;47.458;9.644;2023-06-19T04:37:49;22.10;69.80
38936;DHT22;66589;47.458;9.644;2023-06-19T04:40:14;22.20;68.40
38936;DHT22;66589;47.458;9.644;2023-06-19T04:42:40;22.20;68.00
38936;DHT22;66589;47.458;9.644;2023-06-19T04:45:07;22.20;68.00
38936;DHT22;66589;47.458;9.644;2023-06-19T04:47:33;22.20;68.80
38936;DHT22;66589;47.458;9.644;2023-06-19T04:49:59;22.20;68.30
38936;DHT22;66589;47.458;9.644;2023-06-19T04:52:25;22.20;68.60
38936;DHT22;66589;47.458;9.644;2023-06-19T04:54:51;22.20;69.20
38936;DHT22;66589;47.458;9.644;2023-06-19T04:57:17;22.10;68.50
38936;DHT22;66589;47.458;9.644;2023-06-19T04:59:43;22.10;68.50
38936;DHT22;66589;47.458;9.644;2023-06-19T05:02:12;22.20;67.90
38936;DHT22;66589;47.458;9.644;2023-06-19T05:04:37;22.30;68.00
38936;DHT22;66589;47.458;9.644;2023-06-19T05:07:03;22.80;67.20
38936;DHT22;66589;47.458;9.644;2023-06-19T05:09:29;23.40;65.20
38936;DHT22;66589;47.458;9.644;2023-06-19T05:11:56;23.20;64.00
38936;DHT22;66589;47.458;9.644;2023-06-19T05:14:22;23.20;64.70
38936;DHT22;66589;47.458;9.644;2023-06-19T05:16:47;23.30;64.30
38936;DHT22;66589;47.458;9.644;2023-06-19T05:19:13;23.30;64.10
38936;DHT22;66589;47.458;9.644;2023-06-19T05:21:39;23.20;64.90
38936;DHT22;66589;47.458;9.644;2023-06-19T05:24:04;23.40;65.10
38936;DHT22;66589;47.458;9.644;2023-06-19T05:26:30;23.70;66.20
38936;DHT22;66589;47.458;9.644;2023-06-19T05:28:56;23.80;66.40
38936;DHT22;66589;47.458;9.644;2023-06-19T05:31:21;24.00;65.00
38936;DHT22;66589;47.458;9.644;2023-06-19T05:33:47;24.10;63.60
38936;DHT22;66589;47.458;9.644;2023-06-19T05:36:13;24.20;65.90
38936;DHT22;66589;47.458;9.644;2023-06-19T05:38:38;24.10;66.70
38936;DHT22;66589;47.458;9.644;2023-06-19T05:41:04;23.80;68.80
38936;DHT22;66589;47.458;9.644;2023-06-19T05:43:30;23.70;70.30
38936;DHT22;66589;47.458;9.644;2023-06-19T05:45:57;23.40;71.90
38936;DHT22;66589;47.458;9.644;2023-06-19T05:48:25;23.20;73.50
38936;DHT22;66589;47.458;9.644;2023-06-19T05:50:51;23.00;75.70
38936;DHT22;66589;47.458;9.644;2023-06-19T05:53:17;22.80;75.80
38936;DHT22;66589;47.458;9.644;2023-06-19T05:55:42;22.50;77.30
38936;DHT22;66589;47.458;9.644;2023-06-19T05:58:08;22.40;78.30
38936;DHT22;66589;47.458;9.644;2023-06-19T06:00:34;22.20;78.80
38936;DHT22;66589;47.458;9.644;2023-06-19T06:03:00;22.20;79.70
38936;DHT22;66589;47.458;9.644;2023-06-19T06:05:26;22.30;80.70
38936;DHT22;66589;47.458;9.644;2023-06-19T06:07:52;22.30;80.60
38936;DHT22;66589;47.458;9.644;2023-06-19T06:10:23;22.40;81.20
38936;DHT22;66589;47.458;9.644;2023-06-19T06:12:49;22.40;82.40
38936;DHT22;66589;47.458;9.644;2023-06-19T06:15:15;22.50;82.70
38936;DHT22;66589;47.458;9.644;2023-06-19T06:17:41;22.70;82.50
38936;DHT22;66589;47.458;9.644;2023-06-19T06:20:07;22.90;80.80
38936;DHT22;66589;47.458;9.644;2023-06-19T06:22:38;22.90;79.80
38936;DHT22;66589;47.458;9.644;2023-06-19T06:25:05;22.90;80.50
38936;DHT22;66589;47.458;9.644;2023-06-19T06:27:31;22.80;81.80
38936;DHT22;66589;47.458;9.644;2023-06-19T06:29:56;22.70;82.00
38936;DHT22;66589;47.458;9.644;2023-06-19T06:32:22;22.70;82.30
38936;DHT22;66589;47.458;9.644;2023-06-19T06:34:48;22.80;81.70
38936;DHT22;66589;47.458;9.644;2023-06-19T06:37:13;23.10;81.70
38936;DHT22;66589;47.458;9.644;2023-06-19T06:39:41;23.50;80.60
38936;DHT22;66589;47.458;9.644;2023-06-19T06:42:07;24.30;77.50
38936;DHT22;66589;47.458;9.644;2023-06-19T06:44:32;25.30;74.20
38936;DHT22;66589;47.458;9.644;2023-06-19T06:46:58;25.70;71.60
38936;DHT22;66589;47.458;9.644;2023-06-19T06:49:24;25.90;71.30
38936;DHT22;66589;47.458;9.644;2023-06-19T06:51:50;25.90;70.40
38936;DHT22;66589;47.458;9.644;2023-06-19T06:54:15;25.90;70.30
38936;DHT22;66589;47.458;9.644;2023-06-19T06:56:41;25.90;70.00
38936;DHT22;66589;47.458;9.644;2023-06-19T06:59:07;25.90;69.80
38936;DHT22;66589;47.458;9.644;2023-06-19T07:01:33;25.90;70.90
38936;DHT22;66589;47.458;9.644;2023-06-19T07:03:58;25.90;70.00
38936;DHT22;66589;47.458;9.644;2023-06-19T07:06:24;26.10;68.80
38936;DHT22;66589;47.458;9.644;2023-06-19T07:08:49;26.80;71.30
38936;DHT22;66589;47.458;9.644;2023-06-19T07:11:15;27.80;68.20
38936;DHT22;66589;47.458;9.644;2023-06-19T07:13:41;29.70;62.30
38936;DHT22;66589;47.458;9.644;2023-06-19T07:16:07;31.50;58.60
38936;DHT22;66589;47.458;9.644;2023-06-19T07:18:33;33.10;53.80
38936;DHT22;66589;47.458;9.644;2023-06-19T07:21:01;34.40;50.90
38936;DHT22;66589;47.458;9.644;2023-06-19T07:23:27;35.40;49.40
38936;DHT22;66589;47.458;9.644;2023-06-19T07:25:52;36.20;48.60
38936;DHT22;66589;47.458;9.644;2023-06-19T07:28:18;36.60;46.90
38936;DHT22;66589;47.458;9.644;2023-06-19T07:30:44;37.00;47.90
38936;DHT22;66589;47.458;9.644;2023-06-19T07:33:10;38.20;47.20
38936;DHT22;66589;47.458;9.644;2023-06-19T07:35:36;39.30;44.50
38936;DHT22;66589;47.458;9.644;2023-06-19T07:38:01;39.30;43.30
38936;DHT22;66589;47.458;9.644;2023-06-19T07:40:27;39.40;42.30
38936;DHT22;66589;47.458;9.644;2023-06-19T07:42:53;39.50;41.50
38936;DHT22;66589;47.458;9.644;2023-06-19T07:45:18;40.00;39.80
38936;DHT22;66589;47.458;9.644;2023-06-19T07:47:53;40.20;38.20
38936;DHT22;66589;47.458;9.644;2023-06-19T07:50:18;40.50;38.30
38936;DHT22;66589;47.458;9.644;2023-06-19T07:52:44;41.10;38.20
38936;DHT22;66589;47.458;9.644;2023-06-19T07:55:09;40.80;38.20
38936;DHT22;66589;47.458;9.644;2023-06-19T07:57:35;40.20;37.20
38936;DHT22;66589;47.458;9.644;2023-06-19T08:00:04;38.90;38.50
38936;DHT22;66589;47.458;9.644;2023-06-19T08:02:40;37.00;40.20
38936;DHT22;66589;47.458;9.644;2023-06-19T08:05:07;35.20;43.40
38936;DHT22;66589;47.458;9.644;2023-06-19T08:07:34;34.40;44.50
38936;DHT22;66589;47.458;9.644;2023-06-19T08:09:59;33.80;46.20
38936;DHT22;66589;47.458;9.644;2023-06-19T08:12:25;33.40;45.20
38936;DHT22;66589;47.458;9.644;2023-06-19T08:14:51;33.10;45.90
38936;DHT22;66589;47.458;9.644;2023-06-19T08:17:17;33.20;47.60
38936;DHT22;66589;47.458;9.644;2023-06-19T08:19:42;33.20;46.30
38936;DHT22;66589;47.458;9.644;2023-06-19T08:22:08;33.30;48.00
38936;DHT22;66589;47.458;9.644;2023-06-19T08:24:36;33.40;47.40
38936;DHT22;66589;47.458;9.644;2023-06-19T08:27:02;33.40;46.90
38936;DHT22;66589;47.458;9.644;2023-06-19T08:29:28;33.30;46.00
38936;DHT22;66589;47.458;9.644;2023-06-19T08:31:53;33.30;45.70
38936;DHT22;66589;47.458;9.644;2023-06-19T08:34:19;33.80;47.30
38936;DHT22;66589;47.458;9.644;2023-06-19T08:36:45;34.70;44.20
38936;DHT22;66589;47.458;9.644;2023-06-19T08:39:10;35.10;45.00
38936;DHT22;66589;47.458;9.644;2023-06-19T08:41:39;35.50;44.30
38936;DHT22;66589;47.458;9.644;2023-06-19T08:44:07;36.20;44.70
38936;DHT22;66589;47.458;9.644;2023-06-19T08:46:34;37.70;42.60
38936;DHT22;66589;47.458;9.644;2023-06-19T08:49:00;38.30;39.20
38936;DHT22;66589;47.458;9.644;2023-06-19T08:51:27;38.80;41.30
38936;DHT22;66589;47.458;9.644;2023-06-19T08:54:04;39.80;40.60
38936;DHT22;66589;47.458;9.644;2023-06-19T08:56:31;40.70;39.30
38936;DHT22;66589;47.458;9.644;2023-06-19T08:59:17;42.00;37.50
38936;DHT22;66589;47.458;9.644;2023-06-19T09:01:53;43.30;35.20
38936;DHT22;66589;47.458;9.644;2023-06-19T09:04:24;44.60;35.20
38936;DHT22;66589;47.458;9.644;2023-06-19T09:06:53;45.00;35.50
38936;DHT22;66589;47.458;9.644;2023-06-19T09:09:20;45.50;33.30
38936;DHT22;66589;47.458;9.644;2023-06-19T09:12:00;45.50;33.80
38936;DHT22;66589;47.458;9.644;2023-06-19T09:14:43;45.90;32.80
38936;DHT22;66589;47.458;9.644;2023-06-19T09:17:18;46.80;33.20
38936;DHT22;66589;47.458;9.644;2023-06-19T09:19:48;47.40;32.40
38936;DHT22;66589;47.458;9.644;2023-06-19T09:22:16;47.80;31.50
38936;DHT22;66589;47.458;9.644;2023-06-19T09:24:44;47.60;30.90
38936;DHT22;66589;47.458;9.644;2023-06-19T09:27:17;47.80;30.60
38936;DHT22;66589;47.458;9.644;2023-06-19T09:29:48;47.20;30.30
38936;DHT22;66589;47.458;9.644;2023-06-19T09:32:18;47.10;32.70
38936;DHT22;66589;47.458;9.644;2023-06-19T09:34:45;47.20;30.20
38936;DHT22;66589;47.458;9.644;2023-06-19T09:37:10;46.30;31.20
38936;DHT22;66589;47.458;9.644;2023-06-19T09:39:40;45.50;31.70
38936;DHT22;66589;47.458;9.644;2023-06-19T09:42:07;46.20;33.00
38936;DHT22;66589;47.458;9.644;2023-06-19T09:44:41;46.60;32.70
38936;DHT22;66589;47.458;9.644;2023-06-19T09:47:17;46.20;33.00
38936;DHT22;66589;47.458;9.644;2023-06-19T09:49:49;44.80;33.00
38936;DHT22;66589;47.458;9.644;2023-06-19T09:52:16;43.10;35.30
38936;DHT22;66589;47.458;9.644;2023-06-19T09:54:43;41.60;36.50
38936;DHT22;66589;47.458;9.644;2023-06-19T09:57:10;40.70;36.70
38936;DHT22;66589;47.458;9.644;2023-06-19T09:59:38;39.70;39.10
38936;DHT22;66589;47.458;9.644;2023-06-19T10:02:05;38.60;39.30
38936;DHT22;66589;47.458;9.644;2023-06-19T10:04:42;37.60;39.80
38936;DHT22;66589;47.458;9.644;2023-06-19T10:10:00;36.90;41.70
38936;DHT22;66589;47.458;9.644;2023-06-19T10:12:43;36.30;43.20
38936;DHT22;66589;47.458;9.644;2023-06-19T10:15:11;36.10;43.80
38936;DHT22;66589;47.458;9.644;2023-06-19T10:17:43;35.70;43.60
38936;DHT22;66589;47.458;9.644;2023-06-19T10:20:25;35.40;44.60
38936;DHT22;66589;47.458;9.644;2023-06-19T10:23:14;34.50;47.30
38936;DHT22;66589;47.458;9.644;2023-06-19T10:25:48;34.50;49.20
38936;DHT22;66589;47.458;9.644;2023-06-19T10:30:44;34.70;48.80
38936;DHT22;66589;47.458;9.644;2023-06-19T10:33:11;34.40;49.20
38936;DHT22;66589;47.458;9.644;2023-06-19T10:35:40;34.40;49.80
38936;DHT22;66589;47.458;9.644;2023-06-19T10:38:07;34.30;48.30
38936;DHT22;66589;47.458;9.644;2023-06-19T10:40:32;34.60;48.10
38936;DHT22;66589;47.458;9.644;2023-06-19T10:42:58;34.80;47.40
38936;DHT22;66589;47.458;9.644;2023-06-19T10:45:24;34.40;46.90
38936;DHT22;66589;47.458;9.644;2023-06-19T10:47:54;34.50;48.80
38936;DHT22;66589;47.458;9.644;2023-06-19T10:50:20;34.70;49.40
38936;DHT22;66589;47.458;9.644;2023-06-19T10:52:46;34.80;48.20
38936;DHT22;66589;47.458;9.644;2023-06-19T10:55:13;34.70;48.10
38936;DHT22;66589;47.458;9.644;2023-06-19T10:57:45;34.50;47.60
38936;DHT22;66589;47.458;9.644;2023-06-19T11:00:11;34.40;48.30
38936;DHT22;66589;47.458;9.644;2023-06-19T11:02:47;34.10;47.90
38936;DHT22;66589;47.458;9.644;2023-06-19T11:05:14;34.00;46.70
38936;DHT22;66589;47.458;9.644;2023-06-19T11:07:39;33.90;48.70
38936;DHT22;66589;47.458;9.644;2023-06-19T11:10:06;33.80;49.50
38936;DHT22;66589;47.458;9.644;2023-06-19T11:12:32;33.50;48.40
38936;DHT22;66589;47.458;9.644;2023-06-19T11:15:03;33.30;49.10
38936;DHT22;66589;47.458;9.644;2023-06-19T11:17:30;33.00;46.90
38936;DHT22;66589;47.458;9.644;2023-06-19T11:19:57;33.00;49.80
38936;DHT22;66589;47.458;9.644;2023-06-19T11:22:38;32.90;49.80
38936;DHT22;66589;47.458;9.644;2023-06-19T11:25:04;32.60;49.80
38936;DHT22;66589;47.458;9.644;2023-06-19T11:27:31;32.50;46.90
38936;DHT22;66589;47.458;9.644;2023-06-19T11:29:57;32.60;45.50
38936;DHT22;66589;47.458;9.644;2023-06-19T11:32:29;32.60;47.70
38936;DHT22;66589;47.458;9.644;2023-06-19T11:34:56;32.50;47.90
38936;DHT22;66589;47.458;9.644;2023-06-19T11:37:22;32.40;44.90
38936;DHT22;66589;47.458;9.644;2023-06-19T11:39:49;32.40;44.30
38936;DHT22;66589;47.458;9.644;2023-06-19T11:42:15;32.40;44.50
38936;DHT22;66589;47.458;9.644;2023-06-19T11:45:03;32.40;46.10
38936;DHT22;66589;47.458;9.644;2023-06-19T11:47:34;32.20;46.10
38936;DHT22;66589;47.458;9.644;2023-06-19T11:49:59;32.20;46.40
38936;DHT22;66589;47.458;9.644;2023-06-19T11:52:26;32.30;46.40
38936;DHT22;66589;47.458;9.644;2023-06-19T11:54:51;32.60;46.10
38936;DHT22;66589;47.458;9.644;2023-06-19T11:57:17;32.70;46.80
38936;DHT22;66589;47.458;9.644;2023-06-19T11:59:43;32.60;46.90
38936;DHT22;66589;47.458;9.644;2023-06-19T12:02:09;32.70;46.30
38936;DHT22;66589;47.458;9.644;2023-06-19T12:04:35;32.40;45.10
38936;DHT22;66589;47.458;9.644;2023-06-19T12:07:01;32.30;44.30
38936;DHT22;66589;47.458;9.644;2023-06-19T12:09:27;32.50;45.50
38936;DHT22;66589;47.458;9.644;2023-06-19T12:11:53;32.60;47.50
38936;DHT22;66589;47.458;9.644;2023-06-19T12:14:19;32.60;44.90
38936;DHT22;66589;47.458;9.644;2023-06-19T12:16:46;32.40;45.00
38936;DHT22;66589;47.458;9.644;2023-06-19T12:19:12;32.40;45.40
38936;DHT22;66589;47.458;9.644;2023-06-19T12:21:37;32.30;46.50
38936;DHT22;66589;47.458;9.644;2023-06-19T12:24:04;32.30;45.10
38936;DHT22;66589;47.458;9.644;2023-06-19T12:26:29;32.20;45.80
38936;DHT22;66589;47.458;9.644;2023-06-19T12:28:55;32.10;44.10
38936;DHT22;66589;47.458;9.644;2023-06-19T12:31:21;32.10;45.20
38936;DHT22;66589;47.458;9.644;2023-06-19T12:33:46;32.20;46.20
38936;DHT22;66589;47.458;9.644;2023-06-19T12:36:14;32.30;46.00
38936;DHT22;66589;47.458;9.644;2023-06-19T12:38:40;32.40;46.60
38936;DHT22;66589;47.458;9.644;2023-06-19T12:41:06;32.30;46.20
38936;DHT22;66589;47.458;9.644;2023-06-19T12:43:32;32.50;46.00
38936;DHT22;66589;47.458;9.644;2023-06-19T12:45:58;32.70;46.10
38936;DHT22;66589;47.458;9.644;2023-06-19T12:48:26;32.80;45.40
38936;DHT22;66589;47.458;9.644;2023-06-19T12:50:52;32.90;46.90
38936;DHT22;66589;47.458;9.644;2023-06-19T12:53:17;32.90;46.20
38936;DHT22;66589;47.458;9.644;2023-06-19T12:55:43;32.80;44.60
38936;DHT22;66589;47.458;9.644;2023-06-19T12:58:09;32.60;45.20
38936;DHT22;66589;47.458;9.644;2023-06-19T13:00:35;32.60;46.30
38936;DHT22;66589;47.458;9.644;2023-06-19T13:03:00;32.50;46.40
38936;DHT22;66589;47.458;9.644;2023-06-19T13:05:26;32.50;44.50
38936;DHT22;66589;47.458;9.644;2023-06-19T13:07:52;32.60;46.10
38936;DHT22;66589;47.458;9.644;2023-06-19T13:10:17;32.40;45.20
38936;DHT22;66589;47.458;9.644;2023-06-19T13:12:43;32.30;46.40
38936;DHT22;66589;47.458;9.644;2023-06-19T13:15:09;32.30;45.50
38936;DHT22;66589;47.458;9.644;2023-06-19T13:17:35;32.20;45.20
38936;DHT22;66589;47.458;9.644;2023-06-19T13:20:01;32.10;45.60
38936;DHT22;66589;47.458;9.644;2023-06-19T13:22:27;32.10;45.60
38936;DHT22;66589;47.458;9.644;2023-06-19T13:24:52;32.20;46.40
38936;DHT22;66589;47.458;9.644;2023-06-19T13:27:18;32.10;45.20
38936;DHT22;66589;47.458;9.644;2023-06-19T13:29:44;32.30;45.30
38936;DHT22;66589;47.458;9.644;2023-06-19T13:32:09;32.10;45.10
38936;DHT22;66589;47.458;9.644;2023-06-19T13:34:35;31.70;45.70
38936;DHT22;66589;47.458;9.644;2023-06-19T13:37:01;31.40;46.30
38936;DHT22;66589;47.458;9.644;2023-06-19T13:39:26;31.20;46.70
38936;DHT22;66589;47.458;9.644;2023-06-19T13:41:52;31.20;46.80
38936;DHT22;66589;47.458;9.644;2023-06-19T13:44:18;31.40;48.40
38936;DHT22;66589;47.458;9.644;2023-06-19T13:46:44;31.60;48.90
38936;DHT22;66589;47.458;9.644;2023-06-19T13:49:10;31.70;47.30
38936;DHT22;66589;47.458;9.644;2023-06-19T13:51:36;31.80;46.60
38936;DHT22;66589;47.458;9.644;2023-06-19T13:54:03;31.90;48.40
38936;DHT22;66589;47.458;9.644;2023-06-19T13:56:30;32.00;47.60
38936;DHT22;66589;47.458;9.644;2023-06-19T13:58:57;31.80;47.20
38936;DHT22;66589;47.458;9.644;2023-06-19T14:01:23;31.80;49.00
38936;DHT22;66589;47.458;9.644;2023-06-19T14:03:50;31.70;48.00
38936;DHT22;66589;47.458;9.644;2023-06-19T14:06:17;31.70;47.90
38936;DHT22;66589;47.458;9.644;2023-06-19T14:08:42;31.70;48.50
38936;DHT22;66589;47.458;9.644;2023-06-19T14:11:08;31.70;48.60
38936;DHT22;66589;47.458;9.644;2023-06-19T14:13:34;31.80;48.30
38936;DHT22;66589;47.458;9.644;2023-06-19T14:16:01;31.80;49.60
38936;DHT22;66589;47.458;9.644;2023-06-19T14:18:27;31.60;48.50
38936;DHT22;66589;47.458;9.644;2023-06-19T14:20:52;31.70;48.40
38936;DHT22;66589;47.458;9.644;2023-06-19T14:23:18;31.70;48.30
38936;DHT22;66589;47.458;9.644;2023-06-19T14:25:44;31.80;47.70
38936;DHT22;66589;47.458;9.644;2023-06-19T14:28:09;31.80;49.00
38936;DHT22;66589;47.458;9.644;2023-06-19T14:30:35;31.70;48.10
38936;DHT22;66589;47.458;9.644;2023-06-19T14:33:00;31.80;48.20
38936;DHT22;66589;47.458;9.644;2023-06-19T14:35:27;31.80;46.90
38936;DHT22;66589;47.458;9.644;2023-06-19T14:37:52;31.80;48.80
38936;DHT22;66589;47.458;9.644;2023-06-19T14:40:18;31.90;48.20
38936;DHT22;66589;47.458;9.644;2023-06-19T14:42:44;32.00;45.80
38936;DHT22;66589;47.458;9.644;2023-06-19T14:45:10;31.80;46.90
38936;DHT22;66589;47.458;9.644;2023-06-19T14:47:35;31.70;48.20
38936;DHT22;66589;47.458;9.644;2023-06-19T14:50:01;31.70;48.30
38936;DHT22;66589;47.458;9.644;2023-06-19T14:52:27;31.70;48.10
38936;DHT22;66589;47.458;9.644;2023-06-19T14:54:53;31.70;48.30
38936;DHT22;66589;47.458;9.644;2023-06-19T14:57:19;31.60;47.70
38936;DHT22;66589;47.458;9.644;2023-06-19T14:59:44;31.70;47.40
38936;DHT22;66589;47.458;9.644;2023-06-19T15:02:10;31.70;46.30
38936;DHT22;66589;47.458;9.644;2023-06-19T15:04:36;31.60;47.00
38936;DHT22;66589;47.458;9.644;2023-06-19T15:07:03;31.70;47.20
38936;DHT22;66589;47.458;9.644;2023-06-19T15:09:28;31.70;46.20
38936;DHT22;66589;47.458;9.644;2023-06-19T15:11:54;31.70;45.90
38936;DHT22;66589;47.458;9.644;2023-06-19T15:14:20;31.80;47.20
38936;DHT22;66589;47.458;9.644;2023-06-19T15:16:46;31.80;45.50
38936;DHT22;66589;47.458;9.644;2023-06-19T15:19:11;31.80;46.30
38936;DHT22;66589;47.458;9.644;2023-06-19T15:21:37;31.70;46.90
38936;DHT22;66589;47.458;9.644;2023-06-19T15:24:03;31.70;46.80
38936;DHT22;66589;47.458;9.644;2023-06-19T15:26:30;31.80;46.70
38936;DHT22;66589;47.458;9.644;2023-06-19T15:28:55;31.70;46.00
38936;DHT22;66589;47.458;9.644;2023-06-19T15:31:22;31.60;46.00
38936;DHT22;66589;47.458;9.644;2023-06-19T15:33:48;31.40;46.30
38936;DHT22;66589;47.458;9.644;2023-06-19T15:36:15;31.30;47.10
38936;DHT22;66589;47.458;9.644;2023-06-19T15:38:41;31.30;46.60
38936;DHT22;66589;47.458;9.644;2023-06-19T15:41:06;31.30;47.30
38936;DHT22;66589;47.458;9.644;2023-06-19T15:43:32;31.40;46.80
38936;DHT22;66589;47.458;9.644;2023-06-19T15:45:58;31.50;46.60
38936;DHT22;66589;47.458;9.644;2023-06-19T15:48:24;31.40;46.20
38936;DHT22;66589;47.458;9.644;2023-06-19T15:50:49;31.40;45.90
38936;DHT22;66589;47.458;9.644;2023-06-19T15:53:15;31.40;46.80
38936;DHT22;66589;47.458;9.644;2023-06-19T15:55:41;31.40;46.30
38936;DHT22;66589;47.458;9.644;2023-06-19T15:58:11;31.40;45.70
38936;DHT22;66589;47.458;9.644;2023-06-19T16:00:37;31.30;44.00
38936;DHT22;66589;47.458;9.644;2023-06-19T16:03:03;31.20;44.50
38936;DHT22;66589;47.458;9.644;2023-06-19T16:05:30;30.90;46.00
38936;DHT22;66589;47.458;9.644;2023-06-19T16:07:56;30.80;45.80
38936;DHT22;66589;47.458;9.644;2023-06-19T16:10:22;30.60;45.90
38936;DHT22;66589;47.458;9.644;2023-06-19T16:12:47;30.50;45.90
38936;DHT22;66589;47.458;9.644;2023-06-19T16:15:15;30.30;47.30
38936;DHT22;66589;47.458;9.644;2023-06-19T16:17:43;30.20;46.80
38936;DHT22;66589;47.458;9.644;2023-06-19T16:20:11;30.10;47.50
38936;DHT22;66589;47.458;9.644;2023-06-19T16:22:37;30.00;47.00
38936;DHT22;66589;47.458;9.644;2023-06-19T16:25:03;29.90;47.20
38936;DHT22;66589;47.458;9.644;2023-06-19T16:27:29;29.80;47.80
38936;DHT22;66589;47.458;9.644;2023-06-19T16:29:55;29.70;48.20
38936;DHT22;66589;47.458;9.644;2023-06-19T16:32:20;29.60;48.00
38936;DHT22;66589;47.458;9.644;2023-06-19T16:34:46;29.70;48.30
38936;DHT22;66589;47.458;9.644;2023-06-19T16:37:12;29.70;48.50
38936;DHT22;66589;47.458;9.644;2023-06-19T16:39:37;29.70;48.40
38936;DHT22;66589;47.458;9.644;2023-06-19T16:42:03;29.60;48.70
38936;DHT22;66589;47.458;9.644;2023-06-19T16:44:29;29.70;48.80
38936;DHT22;66589;47.458;9.644;2023-06-19T16:46:55;29.60;48.80
38936;DHT22;66589;47.458;9.644;2023-06-19T16:49:21;29.50;49.30
38936;DHT22;66589;47.458;9.644;2023-06-19T16:51:48;29.50;48.90
38936;DHT22;66589;47.458;9.644;2023-06-19T16:54:13;29.50;48.80
38936;DHT22;66589;47.458;9.644;2023-06-19T16:56:39;29.40;49.10
38936;DHT22;66589;47.458;9.644;2023-06-19T16:59:05;29.30;49.00
38936;DHT22;66589;47.458;9.644;2023-06-19T17:01:35;29.30;49.30
38936;DHT22;66589;47.458;9.644;2023-06-19T17:04:01;29.10;49.40
38936;DHT22;66589;47.458;9.644;2023-06-19T17:06:27;29.10;49.50
38936;DHT22;66589;47.458;9.644;2023-06-19T17:08:53;29.10;49.70
38936;DHT22;66589;47.458;9.644;2023-06-19T17:11:19;29.10;49.50
38936;DHT22;66589;47.458;9.644;2023-06-19T17:13:44;29.00;49.60
38936;DHT22;66589;47.458;9.644;2023-06-19T17:16:10;29.00;49.60
38936;DHT22;66589;47.458;9.644;2023-06-19T17:18:35;28.90;49.70
38936;DHT22;66589;47.458;9.644;2023-06-19T17:21:01;28.90;50.00
38936;DHT22;66589;47.458;9.644;2023-06-19T17:23:27;28.80;50.00
38936;DHT22;66589;47.458;9.644;2023-06-19T17:25:53;28.70;49.60
38936;DHT22;66589;47.458;9.644;2023-06-19T17:28:18;28.60;50.30
38936;DHT22;66589;47.458;9.644;2023-06-19T17:30:44;28.50;50.60
38936;DHT22;66589;47.458;9.644;2023-06-19T17:33:12;28.40;51.80
38936;DHT22;66589;47.458;9.644;2023-06-19T17:35:38;28.10;55.70
38936;DHT22;66589;47.458;9.644;2023-06-19T17:38:03;27.80;58.90
38936;DHT22;66589;47.458;9.644;2023-06-19T17:40:29;27.40;63.80
38936;DHT22;66589;47.458;9.644;2023-06-19T17:42:55;26.80;67.30
38936;DHT22;66589;47.458;9.644;2023-06-19T17:45:20;26.40;67.00
38936;DHT22;66589;47.458;9.644;2023-06-19T17:47:46;26.10;70.10
38936;DHT22;66589;47.458;9.644;2023-06-19T17:50:12;25.80;68.80
38936;DHT22;66589;47.458;9.644;2023-06-19T17:52:38;25.60;69.40
38936;DHT22;66589;47.458;9.644;2023-06-19T17:55:06;25.40;71.10
38936;DHT22;66589;47.458;9.644;2023-06-19T17:57:32;25.20;72.50
38936;DHT22;66589;47.458;9.644;2023-06-19T17:59:57;25.00;76.70
38936;DHT22;66589;47.458;9.644;2023-06-19T18:02:23;24.40;77.10
38936;DHT22;66589;47.458;9.644;2023-06-19T18:04:50;24.00;81.40
38936;DHT22;66589;47.458;9.644;2023-06-19T18:07:15;23.80;80.50
38936;DHT22;66589;47.458;9.644;2023-06-19T18:09:43;23.40;83.60
38936;DHT22;66589;47.458;9.644;2023-06-19T18:12:16;23.00;82.60
38936;DHT22;66589;47.458;9.644;2023-06-19T18:14:43;23.10;84.70
38936;DHT22;66589;47.458;9.644;2023-06-19T18:17:10;23.40;83.80
38936;DHT22;66589;47.458;9.644;2023-06-19T18:19:36;23.60;79.90
38936;DHT22;66589;47.458;9.644;2023-06-19T18:22:02;23.80;78.00
38936;DHT22;66589;47.458;9.644;2023-06-19T18:24:28;23.90;79.00
38936;DHT22;66589;47.458;9.644;2023-06-19T18:26:54;23.90;80.00
38936;DHT22;66589;47.458;9.644;2023-06-19T18:29:19;23.90;77.90
38936;DHT22;66589;47.458;9.644;2023-06-19T18:31:46;24.00;77.10
38936;DHT22;66589;47.458;9.644;2023-06-19T18:34:12;23.90;77.80
38936;DHT22;66589;47.458;9.644;2023-06-19T18:36:38;23.80;76.50
38936;DHT22;66589;47.458;9.644;2023-06-19T18:39:04;23.60;77.40
38936;DHT22;66589;47.458;9.644;2023-06-19T18:41:30;23.60;76.40
38936;DHT22;66589;47.458;9.644;2023-06-19T18:43:56;23.60;76.60
38936;DHT22;66589;47.458;9.644;2023-06-19T18:46:21;23.60;76.90
38936;DHT22;66589;47.458;9.644;2023-06-19T18:48:47;23.50;77.20